Kazime Ana — TCPT8 — position and weather

sailwx.info

Track history (hours):
 
Tides and Currents Weather Stations Pressure Air Temp Water Temp Dewpoint Dewpoint Depression Visibility Wind Speed Wind Dir Waves Ship Positions

Kazime Ana

Last reported at 2016-Dec-08 18:33 UTC. Time now 2016-Dec-08 22:05 UTC.
Position N 43°51' E 038°47'.

Length 115 m; draft 6.8 m.

Type: Cargo ship. MMSI: 271001019.

Date/timePositionNaut miles runAvg speedWind from/ knotsBaromVisibWave heightAir tempDewpointWater temp
2016-Dec-08 18:33N 43°51' E 038°47'9 9.2
2016-Dec-08 17:33N 43°57' E 038°57'9 8.9
2016-Dec-08 16:33N 44°04' E 039°03'1 1.3
2016-Dec-08 15:31N 44°06' E 039°04'0 0.0
2016-Dec-08 14:31N 44°06' E 039°04'0 0.0
2016-Dec-08 13:31N 44°06' E 039°04'0 0.0
2016-Dec-08 12:31N 44°06' E 039°04'0 0.0
2016-Dec-08 11:31N 44°06' E 039°04'0 0.0
2016-Dec-08 10:31N 44°06' E 039°04'0 0.0
2016-Dec-08 09:31N 44°06' E 039°04'0 0.0
2016-Dec-08 08:31N 44°06' E 039°04'0 0.0
2016-Dec-08 07:31N 44°06' E 039°04'0 0.0
2016-Dec-08 06:28N 44°06' E 039°04'0 0.0
2016-Dec-08 05:31N 44°06' E 039°04'0 0.0
2016-Dec-08 04:31N 44°06' E 039°04'0 0.0
2016-Dec-08 03:31N 44°06' E 039°04'0 0.0
2016-Dec-08 02:31N 44°06' E 039°04'0 0.0
2016-Dec-08 01:31N 44°06' E 039°04'0 0.0
2016-Dec-08 00:31N 44°06' E 039°04'0 0.0
2016-Dec-07 23:31N 44°06' E 039°04'0 0.0
2016-Dec-07 22:31N 44°06' E 039°04'0 0.0
2016-Dec-07 21:31N 44°06' E 039°04'0 0.0
2016-Dec-07 20:31N 44°06' E 039°04'0 0.0
2016-Dec-07 19:31N 44°06' E 039°04'0 0.0
2016-Dec-07 18:31N 44°06' E 039°04'0 0.0
2016-Dec-07 17:31N 44°06' E 039°04'0 0.0
2016-Dec-07 16:31N 44°06' E 039°04'0 0.0
2016-Dec-07 15:31N 44°06' E 039°04'0 0.0
2016-Dec-07 14:31N 44°06' E 039°04'0 0.0
2016-Dec-07 13:31N 44°06' E 039°04'1 0.5
2016-Dec-07 12:34N 44°05' E 039°04'2 2.5
2016-Dec-07 11:33N 44°03' E 039°06'0 0.1
2016-Dec-07 10:33N 44°03' E 039°06'0 0.0
2016-Dec-07 09:33N 44°03' E 039°06'0 0.0
2016-Dec-07 08:33N 44°03' E 039°06'0 0.0
2016-Dec-07 07:33N 44°03' E 039°06'0 0.0
2016-Dec-07 06:33N 44°03' E 039°06'0 0.1
2016-Dec-07 05:33N 44°03' E 039°06'0 0.1
2016-Dec-07 04:33N 44°03' E 039°06'0 0.0
2016-Dec-07 03:33N 44°03' E 039°06'0 0.0
2016-Dec-07 02:33N 44°03' E 039°06'0 0.0
2016-Dec-07 01:33N 44°03' E 039°06'0 0.0
2016-Dec-07 00:33N 44°03' E 039°06'0 0.0
2016-Dec-06 23:33N 44°03' E 039°06'0 0.0
2016-Dec-06 22:33N 44°03' E 039°06'0 0.1
2016-Dec-06 21:33N 44°03' E 039°06'0 0.0
2016-Dec-06 20:33N 44°03' E 039°06'0 0.0
2016-Dec-06 18:33N 44°03' E 039°06'0 0.0
2016-Dec-06 17:30N 44°03' E 039°06'0 0.0
2016-Dec-06 16:33N 44°03' E 039°06'0 0.0
2016-Dec-06 15:33N 44°03' E 039°06'0 0.0
2016-Dec-06 14:33N 44°03' E 039°06'0 0.0
2016-Dec-06 13:33N 44°03' E 039°06'0 0.0
2016-Dec-06 12:33N 44°03' E 039°06'0 0.0
2016-Dec-06 11:33N 44°03' E 039°06'0 0.0
2016-Dec-06 10:33N 44°03' E 039°06'0 0.0
2016-Dec-06 09:33N 44°03' E 039°06'0 0.0
2016-Dec-06 08:33N 44°03' E 039°06'0 0.0
2016-Dec-06 07:33N 44°03' E 039°06'0 0.1
2016-Dec-06 06:33N 44°03' E 039°06'0 0.1
2016-Dec-06 05:33N 44°03' E 039°06'0 0.0
2016-Dec-06 04:33N 44°03' E 039°06'0 0.1
2016-Dec-06 03:33N 44°03' E 039°06'0 0.0
2016-Dec-06 02:33N 44°03' E 039°06'0 0.0
2016-Dec-06 01:33N 44°03' E 039°06'0 0.0
2016-Dec-06 00:33N 44°03' E 039°06'0 0.0
2016-Dec-05 23:30N 44°03' E 039°06'0 0.0
2016-Dec-05 22:33N 44°03' E 039°06'0 0.0
2016-Dec-05 21:33N 44°03' E 039°06'0 0.0
2016-Dec-05 20:33N 44°03' E 039°06'0 0.0
2016-Dec-05 19:33N 44°03' E 039°06'0 0.0
2016-Dec-05 18:33N 44°03' E 039°06'0 0.0
2016-Dec-05 17:33N 44°03' E 039°06'0 0.0
2016-Dec-05 16:33N 44°03' E 039°06'0 0.0
2016-Dec-05 15:33N 44°03' E 039°06'0 0.0
2016-Dec-05 14:33N 44°03' E 039°06'0 0.0
2016-Dec-05 13:33N 44°03' E 039°06'20 3.9
2016-Dec-05 08:33N 43°43' E 039°07'  
Track history (hours):
 
Tides and Currents Weather Stations Pressure Air Temp Water Temp Dewpoint Dewpoint Depression Visibility Wind Speed Wind Dir Waves Ship Positions

Kazime Ana

Last reported at 2016-Dec-08 18:33 UTC. Time now 2016-Dec-08 22:05 UTC.
Position N 43°51' E 038°47'.

Length 115 m; draft 6.8 m.

Type: Cargo ship. MMSI: 271001019.

Date/timePositionNaut miles runAvg speedWind from/ knotsBaromVisibWave heightAir tempDewpointWater temp
2016-Dec-08 18:33N 43°51' E 038°47'9 9.2
2016-Dec-08 17:33N 43°57' E 038°57'9 8.9
2016-Dec-08 16:33N 44°04' E 039°03'1 1.3
2016-Dec-08 15:31N 44°06' E 039°04'0 0.0
2016-Dec-08 14:31N 44°06' E 039°04'0 0.0
2016-Dec-08 13:31N 44°06' E 039°04'0 0.0
2016-Dec-08 12:31N 44°06' E 039°04'0 0.0
2016-Dec-08 11:31N 44°06' E 039°04'0 0.0
2016-Dec-08 10:31N 44°06' E 039°04'0 0.0
2016-Dec-08 09:31N 44°06' E 039°04'0 0.0
2016-Dec-08 08:31N 44°06' E 039°04'0 0.0
2016-Dec-08 07:31N 44°06' E 039°04'0 0.0
2016-Dec-08 06:28N 44°06' E 039°04'0 0.0
2016-Dec-08 05:31N 44°06' E 039°04'0 0.0
2016-Dec-08 04:31N 44°06' E 039°04'0 0.0
2016-Dec-08 03:31N 44°06' E 039°04'0 0.0
2016-Dec-08 02:31N 44°06' E 039°04'0 0.0
2016-Dec-08 01:31N 44°06' E 039°04'0 0.0
2016-Dec-08 00:31N 44°06' E 039°04'0 0.0
2016-Dec-07 23:31N 44°06' E 039°04'0 0.0
2016-Dec-07 22:31N 44°06' E 039°04'0 0.0
2016-Dec-07 21:31N 44°06' E 039°04'0 0.0
2016-Dec-07 20:31N 44°06' E 039°04'0 0.0
2016-Dec-07 19:31N 44°06' E 039°04'0 0.0
2016-Dec-07 18:31N 44°06' E 039°04'0 0.0
2016-Dec-07 17:31N 44°06' E 039°04'0 0.0
2016-Dec-07 16:31N 44°06' E 039°04'0 0.0
2016-Dec-07 15:31N 44°06' E 039°04'0 0.0
2016-Dec-07 14:31N 44°06' E 039°04'0 0.0
2016-Dec-07 13:31N 44°06' E 039°04'1 0.5
2016-Dec-07 12:34N 44°05' E 039°04'2 2.5
2016-Dec-07 11:33N 44°03' E 039°06'0 0.1
2016-Dec-07 10:33N 44°03' E 039°06'0 0.0
2016-Dec-07 09:33N 44°03' E 039°06'0 0.0
2016-Dec-07 08:33N 44°03' E 039°06'0 0.0
2016-Dec-07 07:33N 44°03' E 039°06'0 0.0
2016-Dec-07 06:33N 44°03' E 039°06'0 0.1
2016-Dec-07 05:33N 44°03' E 039°06'0 0.1
2016-Dec-07 04:33N 44°03' E 039°06'0 0.0
2016-Dec-07 03:33N 44°03' E 039°06'0 0.0
2016-Dec-07 02:33N 44°03' E 039°06'0 0.0
2016-Dec-07 01:33N 44°03' E 039°06'0 0.0
2016-Dec-07 00:33N 44°03' E 039°06'0 0.0
2016-Dec-06 23:33N 44°03' E 039°06'0 0.0
2016-Dec-06 22:33N 44°03' E 039°06'0 0.1
2016-Dec-06 21:33N 44°03' E 039°06'0 0.0
2016-Dec-06 20:33N 44°03' E 039°06'0 0.0
2016-Dec-06 18:33N 44°03' E 039°06'0 0.0
2016-Dec-06 17:30N 44°03' E 039°06'0 0.0
2016-Dec-06 16:33N 44°03' E 039°06'0 0.0
2016-Dec-06 15:33N 44°03' E 039°06'0 0.0
2016-Dec-06 14:33N 44°03' E 039°06'0 0.0
2016-Dec-06 13:33N 44°03' E 039°06'0 0.0
2016-Dec-06 12:33N 44°03' E 039°06'0 0.0
2016-Dec-06 11:33N 44°03' E 039°06'0 0.0
2016-Dec-06 10:33N 44°03' E 039°06'0 0.0
2016-Dec-06 09:33N 44°03' E 039°06'0 0.0
2016-Dec-06 08:33N 44°03' E 039°06'0 0.0
2016-Dec-06 07:33N 44°03' E 039°06'0 0.1
2016-Dec-06 06:33N 44°03' E 039°06'0 0.1
2016-Dec-06 05:33N 44°03' E 039°06'0 0.0
2016-Dec-06 04:33N 44°03' E 039°06'0 0.1
2016-Dec-06 03:33N 44°03' E 039°06'0 0.0
2016-Dec-06 02:33N 44°03' E 039°06'0 0.0
2016-Dec-06 01:33N 44°03' E 039°06'0 0.0
2016-Dec-06 00:33N 44°03' E 039°06'0 0.0
2016-Dec-05 23:30N 44°03' E 039°06'0 0.0
2016-Dec-05 22:33N 44°03' E 039°06'0 0.0
2016-Dec-05 21:33N 44°03' E 039°06'0 0.0
2016-Dec-05 20:33N 44°03' E 039°06'0 0.0
2016-Dec-05 19:33N 44°03' E 039°06'0 0.0
2016-Dec-05 18:33N 44°03' E 039°06'0 0.0
2016-Dec-05 17:33N 44°03' E 039°06'0 0.0
2016-Dec-05 16:33N 44°03' E 039°06'0 0.0
2016-Dec-05 15:33N 44°03' E 039°06'0 0.0
2016-Dec-05 14:33N 44°03' E 039°06'0 0.0
2016-Dec-05 13:33N 44°03' E 039°06'20 3.9
2016-Dec-05 08:33N 43°43' E 039°07'  

Dump ship's entire track history